EPPO

Poznań-Ławica Airport

Poznań, Poland
METAR EPPO 190730Z 30007KT 9999 BKN006 19/18 Q1012 R10/190095
Observed Flight Rules
Jul-19 @ 07:30 UTC (13 minutes ago) Instrument Flight Rules
Wind Visibility Clouds
300° at 7 knots 10,000+ meters
  • Broken at 600' AGL
Temperatures Readings
Current 19°C / 66°F
Dewpoint 18°C / 64°F
Humidity 94%
Altimeter 29.88" Hg
Pressure 1012 hPa
Elevation 92
METAR EPPO 190730Z 30007KT 9999 BKN006 19/18 Q1012 R10/190095
Observed Flight Rules
Jul-19 @ 07:30 UTC
(13 minutes ago)
IFR
Wind Visibility
300° at 7 knots 10,000+ meters
Clouds
  • Broken at 600' AGL
Temperature Dewpoint
19°C / 66°F 18°C / 64°F
Humidity Altimeter Pressure
94% 29.88" Hg 1012 hPa